Time;durP1;ratioP1;P1;durP2;ratioP2;P2;SDS_P1;SDS_P2;PMS_P1;PMS_P2;Temp;Humidity;BMP_temperature;BMP_pressure;BME280_temperature;BME280_humidity;BME280_pressure;Samples;Min_cycle;Max_cycle;Signal;HPM_P1;HPM_P2
2021/06/21 00:00:31;;;;;;;9.82;3.08;;;21.80;99.90;;;;;;5135266;27;20023;-78
2021/06/21 00:02:57;;;;;;;4.55;2.72;;;21.80;99.90;;;;;;5134916;27;20131;-78
2021/06/21 00:05:23;;;;;;;3.28;2.88;;;21.80;99.90;;;;;;5134725;27;20029;-78
2021/06/21 00:07:48;;;;;;;3.28;2.97;;;21.80;99.90;;;;;;5134741;27;20058;-78
2021/06/21 00:10:16;;;;;;;3.38;2.95;;;21.80;99.90;;;;;;5134821;27;20085;-78
2021/06/21 00:12:44;;;;;;;3.08;2.88;;;21.80;99.90;;;;;;5116362;27;20313;-78
2021/06/21 00:15:12;;;;;;;5.60;2.97;;;21.80;99.90;;;;;;5134705;27;20027;-78
2021/06/21 00:17:40;;;;;;;3.95;3.10;;;21.80;99.90;;;;;;5116599;27;20050;-78
2021/06/21 00:20:06;;;;;;;4.07;2.95;;;21.80;99.90;;;;;;5134589;27;20023;-80
2021/06/21 00:22:32;;;;;;;2.95;2.55;;;21.80;99.90;;;;;;5134710;27;20554;-79
2021/06/21 00:25:00;;;;;;;4.07;3.25;;;21.80;99.90;;;;;;5134512;27;20058;-77
2021/06/21 00:27:26;;;;;;;3.53;3.20;;;21.90;99.90;;;;;;5134529;27;20039;-80
2021/06/21 00:29:54;;;;;;;6.82;3.10;;;21.80;99.90;;;;;;5134495;27;20447;-80
2021/06/21 00:32:20;;;;;;;4.38;3.05;;;21.80;99.90;;;;;;5127905;27;20023;-79
2021/06/21 00:34:46;;;;;;;5.88;3.60;;;21.80;99.90;;;;;;5127832;27;20410;-79
2021/06/21 00:37:17;;;;;;;3.63;3.33;;;21.80;99.90;;;;;;5134339;27;20015;-80
2021/06/21 00:39:45;;;;;;;3.85;3.33;;;21.70;99.90;;;;;;5128035;27;20170;-79
2021/06/21 00:42:11;;;;;;;3.58;3.15;;;21.80;99.90;;;;;;5134508;27;20368;-79
2021/06/21 00:44:36;;;;;;;5.30;3.67;;;21.70;99.90;;;;;;5134471;27;20031;-80
2021/06/21 00:47:02;;;;;;;4.30;3.53;;;21.70;99.90;;;;;;5134249;27;20031;-80
2021/06/21 00:49:28;;;;;;;4.13;3.47;;;21.60;99.90;;;;;;5134191;27;20031;-78
2021/06/21 00:51:56;;;;;;;3.92;3.47;;;21.60;99.90;;;;;;5134430;27;20416;-80
2021/06/21 00:54:24;;;;;;;7.57;3.65;;;21.60;99.90;;;;;;5134043;27;20358;-80
2021/06/21 00:56:50;;;;;;;6.53;3.50;;;21.60;99.90;;;;;;5116248;27;20429;-79
2021/06/21 00:59:16;;;;;;;4.93;3.47;;;21.70;99.90;;;;;;5116871;27;20070;-79
2021/06/21 01:01:42;;;;;;;5.07;3.53;;;21.60;99.90;;;;;;5134095;27;20033;-78
2021/06/21 01:04:08;;;;;;;4.20;3.42;;;21.70;99.90;;;;;;5133968;27;20419;-80
2021/06/21 01:06:36;;;;;;;8.73;4.00;;;21.60;99.90;;;;;;5133936;27;20110;-79
2021/06/21 01:09:04;;;;;;;4.43;3.70;;;21.60;99.90;;;;;;5133729;27;20027;-79
2021/06/21 01:11:51;;;;;;;4.05;3.38;;;21.50;99.90;;;;;;5117270;27;20059;-78
2021/06/21 01:14:56;;;;;;;4.38;3.80;;;21.50;99.90;;;;;;5127792;27;20023;-79
2021/06/21 01:17:29;;;;;;;4.30;3.90;;;21.50;99.90;;;;;;5013490;28;20025;-79
2021/06/21 01:20:32;;;;;;;4.15;3.72;;;21.50;99.90;;;;;;5116585;27;20460;-80
2021/06/21 01:23:25;;;;;;;5.38;3.67;;;21.50;99.90;;;;;;5133665;27;20046;-80
2021/06/21 01:26:01;;;;;;;5.03;4.32;;;21.40;99.90;;;;;;5133549;27;20033;-79
2021/06/21 01:28:56;;;;;;;7.05;4.28;;;21.40;99.90;;;;;;5133357;27;20095;-79
2021/06/21 01:31:31;;;;;;;5.68;4.45;;;21.30;99.90;;;;;;5133275;27;20039;-79
2021/06/21 01:33:57;;;;;;;4.90;4.28;;;21.30;99.90;;;;;;5133042;27;20039;-79
2021/06/21 01:36:26;;;;;;;7.25;5.28;;;21.20;99.90;;;;;;5133344;27;20037;-80
2021/06/21 01:38:58;;;;;;;7.13;5.65;;;21.00;99.90;;;;;;5133186;27;20050;-79
2021/06/21 01:41:35;;;;;;;7.78;5.13;;;20.90;99.90;;;;;;5126724;27;20126;-79
2021/06/21 01:44:05;;;;;;;11.85;5.32;;;20.90;99.90;;;;;;5133037;27;20027;-79
2021/06/21 01:46:34;;;;;;;9.60;5.80;;;20.90;99.90;;;;;;5133242;27;20029;-79
2021/06/21 01:49:06;;;;;;;9.35;5.75;;;20.80;99.90;;;;;;5132914;27;20149;-80
2021/06/21 01:51:35;;;;;;;8.98;5.60;;;20.80;99.90;;;;;;5132998;27;20030;-79
2021/06/21 01:54:05;;;;;;;9.40;5.72;;;20.80;99.90;;;;;;5132874;27;20034;-79
2021/06/21 01:56:36;;;;;;;7.30;5.57;;;20.80;99.90;;;;;;5132922;27;20015;-79
2021/06/21 01:59:05;;;;;;;6.68;5.82;;;20.80;99.90;;;;;;5132936;27;20094;-79
2021/06/21 02:01:32;;;;;;;8.50;6.88;;;20.80;99.90;;;;;;5114549;27;20044;-79
2021/06/21 02:04:01;;;;;;;9.65;6.65;;;20.80;99.90;;;;;;5132772;27;20026;-79
2021/06/21 02:06:35;;;;;;;9.35;6.82;;;20.70;99.90;;;;;;5114556;27;20126;-79
2021/06/21 02:09:06;;;;;;;10.57;7.43;;;20.70;99.90;;;;;;5132750;27;20027;-79
2021/06/21 02:11:34;;;;;;;;;;;20.70;99.90;;;;;;5133160;27;20027;-79
2021/06/21 02:14:03;;;;;;;10.88;8.20;;;20.70;99.90;;;;;;5132509;27;20002;-79
2021/06/21 02:16:29;;;;;;;11.45;8.45;;;20.70;99.90;;;;;;5132440;27;20405;-79
2021/06/21 02:18:55;;;;;;;11.15;8.25;;;20.40;99.90;;;;;;5132535;27;20448;-79
2021/06/21 02:21:22;;;;;;;9.65;7.82;;;20.50;99.90;;;;;;5114192;27;20027;-79
2021/06/21 02:23:51;;;;;;;12.85;9.60;;;20.50;99.90;;;;;;5114636;28;20114;-79
2021/06/21 02:26:25;;;;;;;11.13;9.32;;;20.50;99.90;;;;;;5132528;27;20391;-79
2021/06/21 02:28:58;;;;;;;11.10;8.65;;;20.40;99.90;;;;;;5132255;27;20033;-79
2021/06/21 02:31:23;;;;;;;12.70;8.77;;;20.40;99.90;;;;;;5132622;27;20023;-79
2021/06/21 02:33:49;;;;;;;10.10;9.00;;;20.30;99.90;;;;;;5132256;27;20039;-79
2021/06/21 02:36:15;;;;;;;11.80;10.52;;;20.30;99.90;;;;;;5132329;28;20103;-79
2021/06/21 02:38:40;;;;;;;16.00;9.73;;;20.20;99.90;;;;;;5132106;27;20031;-79
2021/06/21 02:41:06;;;;;;;12.18;9.40;;;20.20;99.90;;;;;;5132388;28;20027;-79
2021/06/21 02:43:32;;;;;;;11.27;9.70;;;20.10;99.90;;;;;;5132305;28;20405;-79
2021/06/21 02:45:58;;;;;;;11.13;9.18;;;20.10;99.90;;;;;;5132235;28;20083;-77
2021/06/21 02:48:23;;;;;;;13.60;9.48;;;20.00;99.90;;;;;;5114250;28;20031;-78
2021/06/21 02:50:50;;;;;;;11.02;9.23;;;20.00;99.90;;;;;;5132242;27;20042;-78
2021/06/21 02:53:28;;;;;;;12.80;9.95;;;19.90;99.90;;;;;;5131986;28;20038;-78
2021/06/21 02:56:09;;;;;;;13.48;9.07;;;19.90;99.90;;;;;;5131889;28;20028;-78
2021/06/21 02:58:40;;;;;;;15.88;11.30;;;19.90;99.90;;;;;;5132574;28;20015;-78
2021/06/21 03:01:10;;;;;;;12.45;10.90;;;19.80;99.90;;;;;;5132129;27;20065;-78
2021/06/21 03:03:38;;;;;;;13.35;9.65;;;19.80;99.90;;;;;;5131761;28;20409;-78
2021/06/21 03:06:08;;;;;;;14.48;11.02;;;19.70;99.90;;;;;;5132249;27;20107;-78
2021/06/21 03:08:37;;;;;;;15.15;10.73;;;19.70;99.90;;;;;;5113819;28;20481;-78
2021/06/21 03:11:04;;;;;;;14.32;11.30;;;19.60;99.90;;;;;;5132847;28;20024;-78
2021/06/21 03:13:30;;;;;;;13.73;10.95;;;19.60;99.90;;;;;;5131947;27;20089;-78
2021/06/21 03:16:00;;;;;;;14.98;11.55;;;19.50;99.90;;;;;;5113706;28;20069;-78
2021/06/21 03:18:31;;;;;;;16.50;11.77;;;19.50;99.90;;;;;;5131936;27;20016;-78
2021/06/21 03:20:59;;;;;;;14.95;12.05;;;19.40;99.90;;;;;;5132025;27;20106;-78
2021/06/21 03:23:30;;;;;;;17.20;13.07;;;19.40;99.90;;;;;;5131838;27;20015;-78
2021/06/21 03:26:02;;;;;;;14.00;11.93;;;19.30;99.90;;;;;;5131990;28;20034;-78
2021/06/21 03:28:29;;;;;;;17.70;12.45;;;19.30;99.90;;;;;;5131764;28;20015;-78
2021/06/21 03:31:03;;;;;;;16.45;12.82;;;19.30;99.90;;;;;;5131719;28;20363;-78
2021/06/21 03:33:33;;;;;;;17.92;15.38;;;19.30;99.90;;;;;;5131579;28;20051;-78
2021/06/21 03:35:59;;;;;;;17.80;14.27;;;19.30;99.90;;;;;;5131777;28;20598;-78
2021/06/21 03:38:28;;;;;;;18.67;14.38;;;19.20;99.90;;;;;;5131477;28;20037;-78
2021/06/21 03:40:59;;;;;;;20.08;13.63;;;19.10;99.90;;;;;;5132914;27;20015;-78
2021/06/21 03:43:28;;;;;;;18.30;13.75;;;19.10;99.90;;;;;;5117240;27;20473;-78
2021/06/21 03:45:57;;;;;;;21.77;15.60;;;19.10;99.90;;;;;;5135251;27;20035;-79
2021/06/21 03:48:26;;;;;;;20.00;14.85;;;19.10;99.90;;;;;;5117265;27;20117;-78
2021/06/21 03:50:51;;;;;;;21.27;15.68;;;19.10;99.90;;;;;;5135323;27;20031;-78
2021/06/21 03:53:23;;;;;;;24.48;16.48;;;19.10;99.90;;;;;;5116874;27;20034;-78
2021/06/21 03:55:52;;;;;;;21.15;14.63;;;19.10;99.90;;;;;;5135233;27;20035;-78
2021/06/21 03:58:18;;;;;;;22.45;16.35;;;19.10;99.90;;;;;;5134982;27;20047;-78
2021/06/21 04:00:45;;;;;;;21.75;16.88;;;19.10;99.90;;;;;;5135085;27;20062;-78
2021/06/21 04:03:10;;;;;;;18.85;16.25;;;19.00;99.90;;;;;;5134658;27;20444;-78
2021/06/21 04:05:39;;;;;;;19.90;16.30;;;19.10;99.90;;;;;;5134897;27;20028;-77
2021/06/21 04:08:09;;;;;;;21.92;17.67;;;19.10;99.90;;;;;;5116368;27;20027;-77
2021/06/21 04:10:36;;;;;;;22.17;17.55;;;19.10;99.90;;;;;;5134553;27;20087;-77
2021/06/21 04:13:03;;;;;;;23.55;17.15;;;19.20;99.90;;;;;;5134474;27;20443;-77
2021/06/21 04:15:32;;;;;;;21.63;18.23;;;19.20;99.90;;;;;;5134496;27;20023;-77
2021/06/21 04:18:03;;;;;;;23.15;17.80;;;19.20;99.90;;;;;;5134479;27;20019;-77
2021/06/21 04:20:29;;;;;;;24.35;17.40;;;19.30;99.90;;;;;;5134201;27;20364;-78
2021/06/21 04:22:58;;;;;;;27.15;18.77;;;19.30;99.90;;;;;;5134656;27;20581;-77
2021/06/21 04:25:24;;;;;;;20.30;16.63;;;19.30;99.90;;;;;;5134402;27;20042;-78
2021/06/21 04:27:50;;;;;;;21.35;16.63;;;19.30;99.90;;;;;;5134292;27;20039;-77
2021/06/21 04:30:19;;;;;;;21.20;17.35;;;19.40;99.90;;;;;;5115962;27;20110;-78
2021/06/21 04:32:45;;;;;;;23.42;18.45;;;19.50;99.90;;;;;;5133996;27;20376;-77
2021/06/21 04:35:15;;;;;;;22.52;18.25;;;19.50;99.90;;;;;;5134607;27;20077;-78
2021/06/21 04:37:40;;;;;;;21.40;16.90;;;19.60;99.90;;;;;;5134310;27;20429;-77
2021/06/21 04:40:09;;;;;;;21.58;18.30;;;19.60;99.90;;;;;;5134655;27;20077;-62
2021/06/21 04:42:37;;;;;;;24.20;19.38;;;19.70;99.90;;;;;;5133739;27;20030;-64
2021/06/21 04:45:04;;;;;;;22.27;18.27;;;19.70;99.90;;;;;;5115462;27;20058;-62
2021/06/21 04:47:34;;;;;;;23.80;19.20;;;19.80;99.90;;;;;;5115290;27;20020;-62
2021/06/21 04:50:04;;;;;;;23.95;18.70;;;19.80;99.90;;;;;;5133464;27;20019;-63
2021/06/21 04:52:34;;;;;;;26.27;20.05;;;19.80;99.90;;;;;;5133527;27;20016;-62
2021/06/21 04:55:01;;;;;;;22.13;18.15;;;19.90;99.90;;;;;;5133359;27;20110;-63
2021/06/21 04:57:28;;;;;;;20.77;18.58;;;19.90;99.90;;;;;;5133398;27;20023;-63
2021/06/21 04:59:54;;;;;;;20.90;18.65;;;19.90;99.90;;;;;;5133251;27;20027;-62
2021/06/21 05:02:19;;;;;;;23.92;20.30;;;19.90;99.90;;;;;;5133363;27;20027;-63
2021/06/21 05:04:47;;;;;;;23.40;20.33;;;19.80;99.90;;;;;;5133296;27;20084;-63
2021/06/21 05:07:13;;;;;;;23.17;19.30;;;19.80;99.90;;;;;;5114916;27;20039;-63
2021/06/21 05:09:38;;;;;;;24.00;21.25;;;19.70;99.90;;;;;;5133324;27;20026;-63
2021/06/21 05:12:07;;;;;;;23.50;20.92;;;19.70;99.90;;;;;;5133317;27;20019;-62
2021/06/21 05:14:34;;;;;;;22.42;19.40;;;19.70;99.90;;;;;;5132992;27;20530;-63
2021/06/21 05:17:00;;;;;;;23.58;19.95;;;19.70;99.90;;;;;;5133128;27;20026;-63
2021/06/21 05:19:25;;;;;;;22.80;20.30;;;19.90;99.90;;;;;;5133059;27;20019;-63
2021/06/21 05:21:51;;;;;;;22.75;19.77;;;20.00;99.90;;;;;;5115071;27;20054;-63
2021/06/21 05:24:19;;;;;;;20.95;18.83;;;20.00;99.90;;;;;;5114506;27;20027;-64
2021/06/21 05:26:45;;;;;;;20.52;18.60;;;20.20;99.90;;;;;;5133123;27;20035;-63
2021/06/21 05:29:10;;;;;;;22.33;18.17;;;20.30;99.90;;;;;;5133072;27;20058;-63
2021/06/21 05:31:36;;;;;;;17.58;15.77;;;20.30;99.90;;;;;;5115233;27;20042;-63
2021/06/21 05:34:04;;;;;;;18.13;15.82;;;20.30;99.90;;;;;;5132677;27;20043;-63
2021/06/21 05:36:30;;;;;;;15.68;14.02;;;20.40;99.90;;;;;;5114528;27;20110;-63
2021/06/21 05:38:55;;;;;;;15.85;14.25;;;20.50;99.90;;;;;;5132943;27;20642;-63
2021/06/21 05:41:23;;;;;;;17.67;14.38;;;20.50;99.90;;;;;;5132571;27;20106;-63
2021/06/21 05:43:48;;;;;;;15.13;12.40;;;20.70;99.90;;;;;;5132280;27;20355;-63
2021/06/21 05:46:16;;;;;;;12.50;10.13;;;20.80;99.90;;;;;;5132577;27;20034;-65
2021/06/21 05:48:44;;;;;;;13.93;10.55;;;20.90;99.90;;;;;;5132662;27;20027;-63
2021/06/21 05:51:12;;;;;;;11.27;8.35;;;21.00;99.90;;;;;;5132671;27;20037;-63
2021/06/21 05:53:38;;;;;;;13.57;8.77;;;21.10;99.90;;;;;;5132509;27;20094;-64
2021/06/21 05:56:04;;;;;;;11.98;6.53;;;21.10;99.90;;;;;;5132639;27;20098;-64
2021/06/21 05:58:30;;;;;;;8.25;5.90;;;21.10;99.90;;;;;;5132550;27;20429;-64
2021/06/21 06:00:55;;;;;;;8.63;4.15;;;21.10;99.90;;;;;;5132550;27;20049;-64
2021/06/21 06:03:23;;;;;;;9.00;4.85;;;21.10;99.90;;;;;;5132248;27;20041;-63
2021/06/21 06:05:51;;;;;;;4.80;2.90;;;21.10;99.90;;;;;;5132547;27;20031;-63
2021/06/21 06:08:17;;;;;;;8.00;3.33;;;21.20;99.90;;;;;;5113953;27;20078;-64
2021/06/21 06:10:45;;;;;;;9.48;3.22;;;21.30;99.90;;;;;;5132283;27;20027;-63
2021/06/21 06:13:11;;;;;;;7.13;2.92;;;21.30;99.90;;;;;;5132125;27;20028;-63
2021/06/21 06:15:39;;;;;;;7.57;2.78;;;21.20;99.90;;;;;;5113814;27;20428;-63
2021/06/21 06:18:05;;;;;;;8.23;2.67;;;21.20;99.90;;;;;;5132312;27;20038;-63
2021/06/21 06:20:33;;;;;;;9.90;3.78;;;21.20;99.90;;;;;;5132171;27;20023;-62
2021/06/21 06:23:32;;;;;;;8.90;3.13;;;21.10;99.90;;;;;;5129674;27;20302;-64
2021/06/21 06:25:58;;;;;;;5.07;2.50;;;21.10;99.90;;;;;;5129404;28;20019;-65
2021/06/21 06:28:23;;;;;;;6.07;2.78;;;21.20;99.90;;;;;;5129282;28;20024;-63
2021/06/21 06:30:53;;;;;;;5.68;2.40;;;21.30;99.90;;;;;;5129055;27;20100;-65
2021/06/21 06:33:19;;;;;;;6.38;2.33;;;21.40;99.90;;;;;;5128558;27;20023;-65
2021/06/21 06:35:44;;;;;;;4.80;2.80;;;21.20;99.90;;;;;;5128896;28;20095;-64
2021/06/21 06:38:10;;;;;;;7.10;2.80;;;21.10;99.90;;;;;;5128908;27;20015;-64
2021/06/21 06:40:36;;;;;;;5.10;2.28;;;21.00;99.90;;;;;;5110805;28;20482;-65
2021/06/21 06:43:01;;;;;;;9.07;3.00;;;21.00;99.90;;;;;;5110565;28;20076;-65
2021/06/21 06:45:29;;;;;;;8.20;3.30;;;21.00;99.90;;;;;;5132729;27;20023;-65
2021/06/21 06:47:57;;;;;;;7.47;3.38;;;21.10;99.90;;;;;;5131252;27;20012;-65
2021/06/21 06:50:25;;;;;;;7.82;2.97;;;21.20;99.90;;;;;;5128913;28;20023;-65
2021/06/21 06:52:51;;;;;;;14.32;4.32;;;21.30;99.90;;;;;;5129001;28;20349;-65
2021/06/21 06:58:01;;;;;;;9.43;2.50;;;21.40;99.90;;;;;;5128937;27;20396;-65
2021/06/21 07:00:27;;;;;;;6.60;2.67;;;21.50;99.90;;;;;;5129064;28;20023;-65
2021/06/21 07:02:53;;;;;;;3.63;2.30;;;21.60;99.90;;;;;;5128567;28;20325;-65
2021/06/21 07:05:18;;;;;;;5.93;2.40;;;21.80;99.90;;;;;;5110329;28;20034;-65
2021/06/21 07:07:44;;;;;;;6.47;2.75;;;21.90;99.90;;;;;;5128782;28;20099;-65
2021/06/21 07:10:12;;;;;;;6.93;2.22;;;22.10;99.90;;;;;;5110385;28;20037;-65
2021/06/21 07:12:38;;;;;;;4.85;2.45;;;22.30;99.90;;;;;;5128563;28;20451;-65
2021/06/21 07:15:04;;;;;;;4.22;2.00;;;22.50;99.90;;;;;;5129307;27;20031;-65
2021/06/21 07:17:30;;;;;;;5.85;2.25;;;22.70;99.90;;;;;;5131297;27;20027;-65
2021/06/21 07:19:58;;;;;;;7.85;2.60;;;22.70;99.90;;;;;;5128452;28;20027;-65
2021/06/21 07:22:26;;;;;;;12.80;2.60;;;22.70;99.90;;;;;;5128156;28;20039;-65
2021/06/21 07:24:51;;;;;;;4.38;2.40;;;22.80;99.90;;;;;;5128202;28;20031;-65
2021/06/21 07:27:19;;;;;;;3.60;2.10;;;22.90;99.90;;;;;;5128290;28;20023;-64
2021/06/21 07:29:45;;;;;;;3.78;2.33;;;23.10;99.90;;;;;;5128271;28;20026;-65
2021/06/21 07:32:11;;;;;;;6.70;2.88;;;23.40;99.90;;;;;;5128505;28;20035;-65
2021/06/21 07:34:38;;;;;;;4.15;2.20;;;23.50;99.90;;;;;;5116081;28;20103;-65
2021/06/21 07:37:04;;;;;;;3.05;2.00;;;23.70;99.90;;;;;;5107703;28;20015;-65
2021/06/21 07:39:32;;;;;;;5.55;2.85;;;23.80;99.90;;;;;;5114445;28;20081;-66
2021/06/21 07:41:58;;;;;;;13.07;3.55;;;23.70;99.90;;;;;;5114436;28;20024;-65
2021/06/21 07:44:23;;;;;;;6.25;2.63;;;23.50;99.90;;;;;;5114255;28;20073;-65
2021/06/21 07:46:49;;;;;;;4.13;2.72;;;23.50;99.90;;;;;;5114395;28;20372;-65
2021/06/21 07:49:15;;;;;;;5.32;2.38;;;23.30;99.90;;;;;;5114223;28;20463;-65
2021/06/21 07:51:44;;;;;;;12.30;2.50;;;23.30;99.90;;;;;;5114145;28;20035;-65
2021/06/21 07:54:11;;;;;;;4.85;2.40;;;23.40;99.90;;;;;;5114145;28;20314;-64
2021/06/21 07:56:37;;;;;;;4.68;2.20;;;23.30;99.90;;;;;;5113903;28;20023;-64
2021/06/21 07:59:03;;;;;;;2.35;2.00;;;23.10;99.90;;;;;;5113920;28;20032;-64
2021/06/21 08:01:29;;;;;;;4.28;2.47;;;22.80;99.90;;;;;;5095911;28;20605;-64
2021/06/21 08:03:56;;;;;;;7.93;3.17;;;22.90;99.90;;;;;;5113939;28;20542;-63
2021/06/21 08:06:23;;;;;;;4.18;3.63;;;22.90;99.90;;;;;;5113995;28;20718;-64
2021/06/21 08:08:49;;;;;;;4.20;3.78;;;22.90;99.90;;;;;;5095678;28;20074;-63
2021/06/21 08:11:17;;;;;;;6.57;4.05;;;22.80;99.90;;;;;;5114062;28;20035;-64
2021/06/21 08:13:43;;;;;;;6.03;5.43;;;23.40;99.90;;;;;;5113656;28;20035;-65
2021/06/21 08:16:08;;;;;;;7.20;6.30;;;23.90;99.90;;;;;;5117523;27;20020;-65
2021/06/21 08:18:34;;;;;;;14.90;8.13;;;23.70;99.90;;;;;;5113696;28;20019;-65
2021/06/21 08:21:00;;;;;;;10.55;8.02;;;23.10;99.90;;;;;;5113807;28;20449;-64
2021/06/21 08:23:28;;;;;;;12.20;9.95;;;22.70;99.90;;;;;;5113495;28;20066;-65
2021/06/21 08:25:54;;;;;;;11.90;10.70;;;22.40;99.90;;;;;;5095620;28;20024;-64
2021/06/21 08:28:22;;;;;;;15.23;12.50;;;22.10;99.90;;;;;;5113599;28;20028;-64
2021/06/21 08:30:48;;;;;;;15.93;13.02;;;22.10;99.90;;;;;;5113579;28;20076;-64
2021/06/21 08:33:16;;;;;;;15.43;11.35;;;22.20;99.90;;;;;;5113488;28;20023;-64
2021/06/21 08:35:44;;;;;;;14.68;12.68;;;22.20;99.90;;;;;;5113507;28;20023;-64
2021/06/21 08:38:12;;;;;;;15.13;11.57;;;22.10;99.90;;;;;;5113322;28;20043;-64
2021/06/21 08:40:42;;;;;;;14.38;12.90;;;22.40;99.90;;;;;;5113421;28;20035;-64
2021/06/21 08:43:10;;;;;;;12.45;10.68;;;22.80;99.90;;;;;;5113337;28;20444;-64
2021/06/21 08:45:36;;;;;;;13.98;12.20;;;24.00;99.90;;;;;;5112686;28;20043;-64
2021/06/21 08:48:06;;;;;;;13.43;10.48;;;24.70;99.90;;;;;;5112245;27;20078;-61
2021/06/21 08:50:32;;;;;;;12.02;10.38;;;25.30;99.90;;;;;;5123703;27;20514;-62
2021/06/21 08:53:02;;;;;;;18.20;12.15;;;25.30;99.90;;;;;;5119164;27;20019;-65
2021/06/21 08:55:28;;;;;;;18.83;13.02;;;23.90;99.90;;;;;;5117646;27;20419;-60
2021/06/21 08:57:54;;;;;;;17.20;13.32;;;23.00;99.90;;;;;;5095130;28;20032;-61
2021/06/21 09:00:23;;;;;;;14.02;12.52;;;22.00;99.90;;;;;;5113478;27;20027;-64
2021/06/21 09:02:53;;;;;;;13.52;12.07;;;21.70;99.90;;;;;;5112302;28;20108;-62
2021/06/21 09:05:19;;;;;;;17.20;11.95;;;21.20;99.90;;;;;;5100666;28;20028;-66
2021/06/21 09:07:58;;;;;;;13.68;10.25;;;20.70;99.90;;;;;;5112519;28;20032;-65
2021/06/21 09:10:26;;;;;;;13.57;9.80;;;20.30;99.90;;;;;;5115767;27;20026;-63
2021/06/21 09:13:12;;;;;;;9.98;8.60;;;19.90;99.90;;;;;;5112465;28;20544;-62
2021/06/21 09:15:48;;;;;;;11.40;9.68;;;19.60;99.90;;;;;;5111817;27;20023;-63
2021/06/21 09:18:27;;;;;;;11.32;8.43;;;19.50;99.90;;;;;;5093793;28;20169;-63
2021/06/21 09:21:18;;;;;;;11.07;8.63;;;19.20;99.90;;;;;;5111424;28;20024;-62
2021/06/21 09:23:44;;;;;;;9.30;7.20;;;18.80;99.90;;;;;;5115306;27;20035;-63
2021/06/21 09:26:28;;;;;;;9.52;7.03;;;18.60;99.90;;;;;;5112009;27;20533;-62
2021/06/21 09:28:59;;;;;;;12.10;6.85;;;18.30;99.90;;;;;;5111607;28;20054;-62
2021/06/21 09:31:26;;;;;;;8.63;6.35;;;18.30;99.90;;;;;;5117768;27;20019;-63
2021/06/21 09:34:13;;;;;;;6.47;5.00;;;18.40;99.90;;;;;;5114750;27;20110;-62
2021/06/21 09:36:41;;;;;;;6.85;4.03;;;18.40;99.90;;;;;;5116991;27;20404;-63
2021/06/21 09:39:17;;;;;;;6.10;4.68;;;18.40;99.90;;;;;;5111416;28;20449;-62
2021/06/21 09:41:46;;;;;;;5.45;3.10;;;18.70;99.90;;;;;;5110395;28;20035;-63
2021/06/21 09:44:30;;;;;;;3.95;2.53;;;19.00;99.90;;;;;;5110770;28;20084;-64
2021/06/21 09:47:19;;;;;;;4.53;2.70;;;19.60;99.90;;;;;;5114133;27;20027;-62
2021/06/21 09:50:12;;;;;;;2.05;1.85;;;20.50;99.90;;;;;;5096798;28;20054;-63
2021/06/21 09:52:45;;;;;;;2.50;1.60;;;21.20;99.90;;;;;;5107125;27;20134;-64
2021/06/21 09:55:14;;;;;;;4.13;1.60;;;23.30;99.90;;;;;;5116526;27;20488;-63
2021/06/21 09:57:40;;;;;;;2.30;1.63;;;24.40;99.90;;;;;;5113383;27;20035;-63
2021/06/21 10:00:10;;;;;;;2.78;1.42;;;23.50;99.90;;;;;;5111524;28;20024;-62
2021/06/21 10:02:36;;;;;;;1.05;1.05;;;23.10;99.90;;;;;;5112205;27;20027;-64
2021/06/21 10:05:18;;;;;;;3.08;1.20;;;22.50;99.90;;;;;;5111060;28;20023;-63
2021/06/21 10:07:44;;;;;;;1.55;1.23;;;21.30;99.90;;;;;;5109947;27;20020;-64
2021/06/21 10:10:13;;;;;;;2.40;1.10;;;20.70;99.90;;;;;;5111057;28;20031;-65
2021/06/21 10:12:39;;;;;;;1.63;0.93;;;20.80;99.90;;;;;;5110948;28;20130;-64
2021/06/21 10:15:08;;;;;;;1.58;1.27;;;21.10;99.90;;;;;;5115040;27;20107;-63
2021/06/21 10:17:33;;;;;;;1.50;0.93;;;21.70;99.90;;;;;;5120842;27;20513;-65
2021/06/21 10:20:01;;;;;;;1.40;0.80;;;22.90;99.90;;;;;;5111265;28;20114;-63
2021/06/21 10:22:28;;;;;;;0.90;0.70;;;23.90;99.90;;;;;;5110880;28;20061;-63
2021/06/21 10:24:57;;;;;;;0.57;0.57;;;23.50;99.90;;;;;;5116099;28;20044;-68
2021/06/21 10:27:25;;;;;;;0.63;0.60;;;22.30;99.90;;;;;;5133618;27;20027;-62
2021/06/21 10:29:57;;;;;;;1.35;0.75;;;21.70;99.90;;;;;;5112686;28;20104;-64
2021/06/21 10:32:28;;;;;;;1.00;0.90;;;20.90;99.90;;;;;;5110719;28;20040;-66
2021/06/21 10:34:55;;;;;;;1.50;0.75;;;20.40;99.90;;;;;;5112464;28;20340;-64
2021/06/21 10:37:25;;;;;;;2.45;0.80;;;20.00;99.90;;;;;;5095912;28;20442;-63
2021/06/21 10:39:54;;;;;;;1.42;1.05;;;19.70;99.90;;;;;;5114038;28;20050;-63
2021/06/21 10:42:27;;;;;;;0.70;0.70;;;19.60;99.90;;;;;;5110521;28;20392;-64
2021/06/21 10:45:00;;;;;;;0.98;0.80;;;19.50;99.90;;;;;;5110708;28;20023;-64
2021/06/21 10:47:31;;;;;;;0.68;0.68;;;19.60;99.90;;;;;;5109861;28;20358;-64
2021/06/21 10:50:04;;;;;;;0.75;0.75;;;19.90;99.90;;;;;;5113176;28;20452;-63
2021/06/21 10:52:37;;;;;;;2.83;1.23;;;20.20;99.90;;;;;;5110631;28;20019;-63
2021/06/21 10:55:21;;;;;;;1.27;0.73;;;20.80;99.90;;;;;;5107660;28;20029;-65
2021/06/21 10:57:59;;;;;;;1.00;0.90;;;20.50;99.90;;;;;;5111670;28;20106;-64
2021/06/21 11:00:43;;;;;;;0.98;0.98;;;20.20;99.90;;;;;;5115449;28;20048;-63
2021/06/21 11:03:31;;;;;;;2.83;1.73;;;20.30;99.90;;;;;;5118882;28;20024;-65
2021/06/21 11:06:03;;;;;;;1.58;1.27;;;20.30;99.90;;;;;;5108692;28;20034;-63
2021/06/21 11:08:46;;;;;;;2.08;1.10;;;19.90;99.90;;;;;;5111409;28;20047;-63
2021/06/21 11:11:45;;;;;;;1.20;1.10;;;19.80;99.90;;;;;;5119038;27;20095;-63
2021/06/21 11:14:22;;;;;;;1.00;1.00;;;19.70;99.90;;;;;;5091092;28;20046;-64
2021/06/21 11:16:51;;;;;;;1.83;1.45;;;19.80;99.90;;;;;;5119453;27;20023;-64
2021/06/21 11:19:20;;;;;;;1.35;1.13;;;19.70;99.90;;;;;;5111654;28;20031;-64
2021/06/21 11:21:53;;;;;;;2.33;1.25;;;19.40;99.90;;;;;;5114830;27;20411;-64
2021/06/21 11:24:46;;;;;;;2.92;1.40;;;19.40;99.90;;;;;;5114206;28;20024;-62
2021/06/21 11:27:22;;;;;;;2.15;1.40;;;19.70;99.90;;;;;;5118906;27;20023;-64
2021/06/21 11:29:54;;;;;;;2.28;1.40;;;19.90;99.90;;;;;;5113933;27;20023;-63
2021/06/21 11:32:21;;;;;;;0.90;0.90;;;20.30;99.90;;;;;;5117272;27;20443;-64
2021/06/21 11:34:47;;;;;;;1.30;1.20;;;20.60;99.90;;;;;;5113749;28;20576;-64
2021/06/21 11:37:31;;;;;;;1.17;0.90;;;21.40;99.90;;;;;;5114941;27;20051;-64
2021/06/21 11:40:28;;;;;;;2.88;1.42;;;22.10;99.90;;;;;;5115679;27;20464;-63
2021/06/21 11:42:59;;;;;;;2.10;1.20;;;22.60;99.90;;;;;;5115656;27;20047;-64
2021/06/21 11:45:44;;;;;;;3.03;1.17;;;22.90;99.90;;;;;;5097524;27;20015;-62
2021/06/21 11:48:11;;;;;;;1.75;0.90;;;22.90;99.90;;;;;;5111846;28;20028;-63
2021/06/21 11:50:39;;;;;;;0.95;0.95;;;22.50;99.90;;;;;;5112935;28;20050;-62
2021/06/21 11:53:08;;;;;;;1.30;1.10;;;22.00;99.90;;;;;;5119224;27;20020;-63
2021/06/21 11:55:36;;;;;;;1.65;1.02;;;22.30;99.90;;;;;;5119270;27;20095;-63
2021/06/21 11:58:02;;;;;;;0.90;0.90;;;22.20;99.90;;;;;;5121121;27;20089;-64
2021/06/21 12:00:36;;;;;;;1.70;0.77;;;21.70;99.90;;;;;;5122032;27;20110;-63
2021/06/21 12:03:10;;;;;;;1.90;1.80;;;21.10;99.90;;;;;;5116842;27;20035;-63
2021/06/21 12:05:36;;;;;;;1.00;1.00;;;20.90;99.90;;;;;;5114941;27;20011;-63
2021/06/21 12:08:13;;;;;;;1.90;1.02;;;21.00;99.90;;;;;;5113096;28;20112;-64
2021/06/21 12:10:42;;;;;;;1.17;1.00;;;21.00;99.90;;;;;;5115597;27;20275;-64
2021/06/21 12:13:08;;;;;;;1.38;1.00;;;20.70;99.90;;;;;;5110269;28;20015;-63
2021/06/21 12:15:37;;;;;;;0.80;0.80;;;20.40;99.90;;;;;;5114534;27;20027;-62
2021/06/21 12:18:03;;;;;;;1.10;1.00;;;20.30;99.90;;;;;;5112484;28;20106;-63
2021/06/21 12:20:32;;;;;;;0.98;0.90;;;20.10;99.90;;;;;;5099123;28;20051;-64
2021/06/21 12:23:11;;;;;;;3.70;1.13;;;20.00;99.90;;;;;;5112823;28;20036;-63
2021/06/21 12:25:38;;;;;;;0.88;0.88;;;19.70;99.90;;;;;;5113108;28;20019;-63
2021/06/21 12:28:17;;;;;;;1.20;1.00;;;19.70;99.90;;;;;;5112813;28;20416;-63
2021/06/21 12:30:46;;;;;;;1.48;1.20;;;19.40;99.90;;;;;;5113994;27;20031;-63
2021/06/21 12:33:24;;;;;;;1.83;1.65;;;19.30;99.90;;;;;;5094215;28;20173;-63
2021/06/21 12:36:10;;;;;;;2.72;1.52;;;19.30;99.90;;;;;;5112797;27;20022;-63
2021/06/21 12:38:53;;;;;;;2.30;2.10;;;19.50;99.90;;;;;;5112753;28;20072;-63
2021/06/21 12:41:24;;;;;;;2.88;1.52;;;19.50;99.90;;;;;;5115871;27;20107;-62
2021/06/21 12:44:06;;;;;;;1.80;1.30;;;19.60;99.90;;;;;;5112925;28;20043;-63
2021/06/21 12:46:36;;;;;;;2.97;1.70;;;19.50;99.90;;;;;;5117561;27;20043;-63
2021/06/21 12:49:09;;;;;;;3.05;2.20;;;19.50;99.90;;;;;;5112753;28;20023;-63
2021/06/21 12:51:37;;;;;;;2.10;1.90;;;19.60;99.90;;;;;;5112830;28;20093;-67
2021/06/21 12:54:04;;;;;;;2.65;2.03;;;19.60;99.90;;;;;;5112268;28;20055;-64
2021/06/21 12:56:35;;;;;;;3.00;2.70;;;19.60;99.90;;;;;;5114761;27;20035;-63